Time;durP1;ratioP1;P1;durP2;ratioP2;P2;SDS_P1;SDS_P2;PMS_P1;PMS_P2;Temp;Humidity;BMP_temperature;BMP_pressure;BME280_temperature;BME280_humidity;BME280_pressure;Samples;Min_cycle;Max_cycle;Signal;HPM_P1;HPM_P2
2023/07/06 09:26:33;;;;;;;7.68;3.92;;;;;;;22.41;57.63;101792.63;6147879;22;1268089;-75
2023/07/06 09:29:29;;;;;;;7.97;3.60;;;;;;;22.27;59.06;101794.38;6189741;23;20054;-74
2023/07/06 09:32:12;;;;;;;8.68;3.78;;;;;;;22.39;59.37;101797.09;6189908;23;20049;-73
2023/07/06 09:34:44;;;;;;;9.27;3.85;;;;;;;22.62;57.61;101793.81;6189526;23;20073;-74
2023/07/06 09:37:13;;;;;;;5.63;3.30;;;;;;;22.73;55.07;101795.00;6189344;23;20014;-75
2023/07/06 09:39:40;;;;;;;4.07;3.30;;;;;;;22.84;56.49;101800.41;6189096;23;20451;-74
2023/07/06 09:42:14;;;;;;;9.32;3.90;;;;;;;22.60;56.45;101801.69;6189741;23;20113;-75
2023/07/06 09:44:41;;;;;;;6.95;3.45;;;;;;;22.32;56.25;101798.31;6189173;23;20475;-74
2023/07/06 09:47:12;;;;;;;9.65;3.53;;;;;;;22.51;56.56;101796.53;6162978;23;20041;-75
2023/07/06 09:49:47;;;;;;;8.18;3.63;;;;;;;22.88;56.68;101796.19;6188967;23;20043;-77
2023/07/06 09:52:17;;;;;;;11.23;4.90;;;;;;;22.78;55.70;101803.16;6189251;23;20018;-76
2023/07/06 09:54:54;;;;;;;4.95;4.07;;;;;;;22.36;55.45;101809.66;6189304;23;20097;-76
2023/07/06 09:57:24;;;;;;;10.38;4.18;;;;;;;22.15;56.72;101800.31;6189213;23;20052;-76
2023/07/06 09:59:52;;;;;;;5.13;4.22;;;;;;;22.05;57.87;101816.09;6189381;23;20018;-78
2023/07/06 10:02:56;;;;;;;6.93;4.72;;;;;;;21.94;58.32;101807.94;6188961;23;20439;-77
2023/07/06 10:05:31;;;;;;;6.90;4.28;;;;;;;21.94;57.73;101805.25;6113675;23;20206;-76
2023/07/06 10:08:11;;;;;;;7.40;4.55;;;;;;;21.77;58.73;101809.91;6189497;23;20014;-76
2023/07/06 10:10:49;;;;;;;7.65;4.10;;;;;;;21.77;59.06;101807.94;6189048;23;20302;-76
2023/07/06 10:13:28;;;;;;;6.93;3.95;;;;;;;21.61;57.11;101812.09;6162637;23;20065;-76
2023/07/06 10:16:08;;;;;;;7.78;3.60;;;;;;;21.35;56.37;101806.16;6189348;23;20025;-76
2023/07/06 10:18:49;;;;;;;6.13;4.05;;;;;;;21.15;57.38;101798.19;6189115;23;20085;-76
2023/07/06 10:21:27;;;;;;;10.68;3.88;;;;;;;21.06;57.71;101815.41;6188878;23;20092;-77
2023/07/06 10:24:16;;;;;;;6.35;3.95;;;;;;;21.38;58.66;101805.19;6189576;23;20014;-76
2023/07/06 10:26:50;;;;;;;5.35;4.05;;;;;;;21.56;58.37;101809.41;6188728;23;20028;-75
2023/07/06 10:29:22;;;;;;;8.18;3.63;;;;;;;21.47;58.21;101812.34;6189346;23;20013;-76
2023/07/06 10:32:11;;;;;;;5.93;3.78;;;;;;;21.24;58.84;101806.84;6189531;23;20044;-76
2023/07/06 10:34:53;;;;;;;8.55;4.00;;;;;;;21.24;59.91;101798.72;6188120;23;20020;-75
2023/07/06 10:37:24;;;;;;;4.35;3.60;;;;;;;21.04;58.72;101804.31;6190514;23;20072;-76
2023/07/06 10:39:58;;;;;;;7.20;4.28;;;;;;;20.93;59.63;101806.97;6190754;23;20149;-76
2023/07/06 10:42:27;;;;;;;6.30;4.35;;;;;;;20.96;60.56;101814.13;6190225;23;20393;-76
2023/07/06 10:44:58;;;;;;;8.15;4.18;;;;;;;20.92;59.67;101810.91;6190838;23;20014;-76
2023/07/06 10:47:28;;;;;;;8.82;4.20;;;;;;;20.84;60.94;101816.03;6164249;23;20100;-76
2023/07/06 10:50:06;;;;;;;6.30;3.80;;;;;;;20.74;60.68;101819.44;6190081;23;20018;-75
2023/07/06 10:52:44;;;;;;;9.63;4.13;;;;;;;20.53;61.23;101829.63;6190561;23;20022;-75
2023/07/06 10:55:19;;;;;;;5.35;3.83;;;;;;;20.39;65.27;101834.00;6190484;23;20018;-76
2023/07/06 10:57:53;;;;;;;8.32;3.72;;;;;;;20.24;66.44;101844.16;6164085;23;20018;-76
2023/07/06 11:00:30;;;;;;;14.32;4.03;;;;;;;20.04;67.20;101836.13;6190277;23;20022;-74
2023/07/06 11:03:00;;;;;;;7.03;4.05;;;;;;;19.94;68.71;101836.31;6163971;23;20044;-74
2023/07/06 11:05:30;;;;;;;5.80;3.97;;;;;;;19.97;69.60;101846.19;6190571;23;20104;-74
2023/07/06 11:08:02;;;;;;;6.05;4.20;;;;;;;19.86;68.86;101842.63;6163854;23;20104;-74
2023/07/06 11:10:36;;;;;;;9.70;4.07;;;;;;;19.78;68.70;101844.25;6190304;23;20059;-74
2023/07/06 11:13:06;;;;;;;7.18;3.60;;;;;;;19.79;67.43;101849.19;6190746;23;20021;-74
2023/07/06 11:15:38;;;;;;;7.18;3.88;;;;;;;19.81;68.46;101848.72;6163227;23;20013;-74
2023/07/06 11:18:19;;;;;;;5.82;3.60;;;;;;;19.78;67.99;101852.38;6190100;23;20018;-75
2023/07/06 11:20:51;;;;;;;8.10;3.95;;;;;;;19.80;68.48;101866.88;6190409;23;20024;-74
2023/07/06 11:23:32;;;;;;;6.20;3.83;;;;;;;19.91;68.12;101852.75;6164308;23;20088;-74
2023/07/06 11:26:03;;;;;;;11.13;4.20;;;;;;;19.87;67.62;101850.25;6158655;23;20025;-75
2023/07/06 11:28:31;;;;;;;9.10;3.83;;;;;;;19.87;67.34;101868.44;6160267;23;20109;-74
2023/07/06 11:31:14;;;;;;;5.60;3.42;;;;;;;20.13;67.90;101863.00;6160572;23;20018;-75
2023/07/06 11:33:48;;;;;;;8.65;3.97;;;;;;;20.17;65.92;101863.53;6159742;23;20018;-75
2023/07/06 11:36:26;;;;;;;4.97;3.65;;;;;;;20.22;66.52;101855.47;6160695;23;20415;-75
2023/07/06 11:39:16;;;;;;;15.30;3.65;;;;;;;20.42;66.54;101853.91;6160833;23;20022;-74
2023/07/06 11:41:53;;;;;;;5.38;3.38;;;;;;;20.50;66.59;101858.38;6160187;23;20018;-75
2023/07/06 11:44:47;;;;;;;7.38;3.88;;;;;;;20.69;66.24;101858.78;6158730;23;20018;-74
2023/07/06 11:47:46;;;;;;;6.05;2.65;;;;;;;20.64;64.64;101856.75;6159772;23;20049;-74
2023/07/06 11:50:16;;;;;;;3.65;2.33;;;;;;;20.57;60.45;101868.03;6160752;23;20048;-75
2023/07/06 11:52:58;;;;;;;4.72;2.30;;;;;;;20.51;59.94;101859.13;6159027;23;20018;-75
2023/07/06 11:55:33;;;;;;;3.35;1.80;;;;;;;20.59;56.85;101858.22;6160420;23;20411;-75
2023/07/06 11:58:18;;;;;;;4.35;1.73;;;;;;;21.15;54.06;101855.06;6160492;23;20025;-75
2023/07/06 12:00:52;;;;;;;4.60;1.55;;;;;;;21.43;55.79;101863.31;6158815;23;20026;-75
2023/07/06 12:03:29;;;;;;;4.22;1.80;;;;;;;21.91;52.20;101861.19;6160089;23;20018;-75
2023/07/06 12:06:01;;;;;;;2.15;1.55;;;;;;;22.34;53.14;101868.34;6160654;23;20025;-75
2023/07/06 12:08:29;;;;;;;;;;;;;;;22.51;54.85;101860.91;6160675;23;20080;-75
2023/07/06 12:11:02;;;;;;;1.85;1.60;;;;;;;22.47;51.93;101865.84;6160042;23;20000;-75
2023/07/06 12:13:56;;;;;;;1.55;1.35;;;;;;;22.78;52.84;101857.44;6159764;23;20018;-75
2023/07/06 12:16:24;;;;;;;2.05;1.63;;;;;;;22.86;50.12;101858.38;6156052;23;20081;-75
2023/07/06 12:19:15;;;;;;;2.70;1.40;;;;;;;23.12;48.55;101854.59;6160030;23;20430;-77
2023/07/06 12:21:53;;;;;;;3.17;1.58;;;;;;;23.25;48.33;101855.50;6159578;23;20037;-76
2023/07/06 12:24:23;;;;;;;3.58;1.70;;;;;;;22.87;48.62;101853.69;6159883;23;20837;-76
2023/07/06 12:27:12;;;;;;;3.25;1.88;;;;;;;22.70;48.45;101853.00;6189411;23;20092;-77
2023/07/06 12:29:39;;;;;;;2.65;1.77;;;;;;;22.56;49.12;101855.50;6162483;23;20024;-77
2023/07/06 12:32:15;;;;;;;2.78;1.52;;;;;;;22.97;51.16;101859.59;6189442;23;20029;-76
2023/07/06 12:34:46;;;;;;;4.03;1.45;;;;;;;22.94;50.49;101862.06;6189903;23;20021;-75
2023/07/06 12:37:16;;;;;;;4.82;2.53;;;;;;;22.64;50.17;101858.44;6190269;23;20041;-74
2023/07/06 12:39:46;;;;;;;4.05;1.85;;;;;;;22.18;50.33;101861.69;6189592;23;20443;-75
2023/07/06 12:42:16;;;;;;;5.60;1.90;;;;;;;22.17;50.40;101869.09;6190005;23;20017;-76
2023/07/06 12:44:44;;;;;;;3.15;1.67;;;;;;;22.11;50.46;101862.94;6189144;23;20014;-75
2023/07/06 12:47:30;;;;;;;3.50;1.67;;;;;;;22.57;49.98;101861.66;6189975;23;20018;-75
2023/07/06 12:50:05;;;;;;;1.88;1.60;;;;;;;22.80;48.91;101868.53;6189278;23;20013;-75
2023/07/06 12:52:33;;;;;;;6.10;1.25;;;;;;;22.82;47.95;101854.44;6188101;23;20032;-75
2023/07/06 12:55:02;;;;;;;5.40;1.20;;;;;;;22.73;46.97;101854.72;6188566;23;20014;-75
2023/07/06 12:57:36;;;;;;;1.85;1.30;;;;;;;22.94;46.58;101862.06;6187841;23;20013;-74
2023/07/06 13:00:12;;;;;;;2.35;1.15;;;;;;;22.89;45.75;101853.94;6160926;23;20032;-75
2023/07/06 13:02:40;;;;;;;2.50;1.25;;;;;;;23.57;47.17;101855.88;6187947;23;20044;-74
2023/07/06 13:05:25;;;;;;;3.28;1.10;;;;;;;23.59;44.69;101847.94;6189096;23;20041;-74
2023/07/06 13:07:53;;;;;;;3.28;1.10;;;;;;;23.51;44.19;101862.56;6190180;23;20018;-74
2023/07/06 13:10:23;;;;;;;1.30;1.20;;;;;;;23.84;42.82;101867.81;6189612;23;20022;-74
2023/07/06 13:12:54;;;;;;;4.30;1.20;;;;;;;23.99;43.56;101858.56;6189927;23;20080;-75
2023/07/06 13:15:36;;;;;;;2.22;1.10;;;;;;;24.35;42.61;101864.69;6161578;23;20026;-75
2023/07/06 13:18:06;;;;;;;2.28;1.00;;;;;;;24.19;40.96;101866.28;6189790;23;20018;-75
2023/07/06 13:20:34;;;;;;;1.40;1.27;;;;;;;23.79;40.22;101865.13;6189128;23;20022;-74
2023/07/06 13:23:04;;;;;;;1.38;1.27;;;;;;;23.59;40.79;101858.09;6189644;23;20076;-75
2023/07/06 13:25:30;;;;;;;1.40;1.05;;;;;;;23.75;41.04;101853.78;6188252;23;20477;-75
2023/07/06 13:27:58;;;;;;;1.25;1.15;;;;;;;23.84;42.24;101861.63;6188694;23;20018;-75
2023/07/06 13:30:25;;;;;;;1.77;0.98;;;;;;;24.08;42.19;101861.66;6162309;23;20018;-75
2023/07/06 13:32:56;;;;;;;1.77;1.15;;;;;;;24.34;41.18;101861.25;6188852;23;20025;-75
2023/07/06 13:35:23;;;;;;;1.25;1.13;;;;;;;24.01;41.44;101856.78;6189023;23;20356;-75
2023/07/06 13:37:49;;;;;;;2.15;1.50;;;;;;;23.90;41.24;101859.59;6189275;23;20024;-75
2023/07/06 13:40:22;;;;;;;2.35;1.17;;;;;;;24.11;39.96;101857.94;6162257;23;20099;-75
2023/07/06 13:42:51;;;;;;;1.40;1.25;;;;;;;24.10;41.62;101859.19;6187838;23;20352;-75
2023/07/06 13:45:24;;;;;;;1.20;1.20;;;;;;;24.04;41.16;101855.75;6160988;23;20092;-75
2023/07/06 13:47:52;;;;;;;3.70;1.38;;;;;;;23.84;41.93;101854.22;6187838;23;20013;-75
2023/07/06 13:50:21;;;;;;;3.10;1.25;;;;;;;23.99;41.23;101856.56;6160903;23;20025;-75
2023/07/06 13:52:48;;;;;;;1.63;1.20;;;;;;;24.22;40.98;101851.66;6161479;23;20022;-75
2023/07/06 13:55:26;;;;;;;1.20;1.10;;;;;;;24.13;40.22;101854.72;6187552;23;20024;-75
2023/07/06 13:57:53;;;;;;;2.70;1.20;;;;;;;24.03;39.89;101853.56;6160194;23;20045;-75
2023/07/06 14:00:19;;;;;;;1.17;1.10;;;;;;;24.10;41.10;101859.19;6187042;23;20025;-75
2023/07/06 14:02:49;;;;;;;1.42;1.23;;;;;;;24.02;39.68;101854.78;6187666;23;20132;-74
2023/07/06 14:05:21;;;;;;;1.58;0.98;;;;;;;23.71;40.12;101854.03;6187406;23;20080;-74
2023/07/06 14:07:49;;;;;;;0.98;0.88;;;;;;;23.36;41.40;101857.44;6187531;23;20020;-74
2023/07/06 14:10:17;;;;;;;2.90;1.02;;;;;;;23.11;42.08;101836.84;6161688;23;20013;-74
2023/07/06 14:12:49;;;;;;;1.60;1.27;;;;;;;23.39;41.94;101842.13;6187930;23;20438;-74
2023/07/06 14:15:20;;;;;;;1.40;1.08;;;;;;;23.76;41.71;101847.09;6161755;23;20534;-74
2023/07/06 14:17:47;;;;;;;1.20;1.10;;;;;;;23.82;40.74;101850.50;6188914;23;20020;-75
2023/07/06 14:20:16;;;;;;;2.17;1.20;;;;;;;24.12;41.71;101840.38;6188656;23;20027;-75
2023/07/06 14:22:43;;;;;;;4.25;1.70;;;;;;;24.18;40.53;101846.50;6188506;23;20025;-75
2023/07/06 14:25:18;;;;;;;2.10;1.27;;;;;;;24.21;39.43;101848.22;6188460;23;20020;-75
2023/07/06 14:27:49;;;;;;;1.42;1.08;;;;;;;24.31;38.97;101837.75;6162709;23;20014;-75
2023/07/06 14:30:19;;;;;;;1.50;1.40;;;;;;;24.28;39.74;101852.38;6188789;23;20025;-76
2023/07/06 14:32:46;;;;;;;1.33;1.30;;;;;;;24.09;39.60;101854.97;6161661;23;20041;-76
2023/07/06 14:35:14;;;;;;;3.38;1.20;;;;;;;23.83;39.31;101847.28;6162982;23;20018;-75
2023/07/06 14:37:42;;;;;;;1.75;1.23;;;;;;;23.82;38.28;101843.09;6188575;23;20044;-75
2023/07/06 14:40:11;;;;;;;1.52;1.25;;;;;;;23.91;39.68;101850.94;6188496;23;20040;-73
2023/07/06 14:42:39;;;;;;;1.33;1.20;;;;;;;23.91;39.59;101853.66;6187976;23;20589;-76
2023/07/06 14:45:07;;;;;;;1.10;1.10;;;;;;;23.97;39.09;101847.44;6188701;23;20024;-76
2023/07/06 14:47:33;;;;;;;2.90;1.38;;;;;;;23.96;40.38;101846.72;6188519;23;20025;-77
2023/07/06 14:50:01;;;;;;;1.30;1.10;;;;;;;24.05;39.71;101845.63;6188974;23;20013;-77
2023/07/06 14:52:28;;;;;;;1.33;1.10;;;;;;;23.89;39.92;101856.16;6188614;23;20021;-78
2023/07/06 14:54:55;;;;;;;1.95;1.48;;;;;;;23.83;39.50;101850.00;6188315;23;20076;-75
2023/07/06 14:57:22;;;;;;;3.08;1.40;;;;;;;23.92;38.10;101851.69;6188521;23;20495;-74
2023/07/06 14:59:49;;;;;;;1.02;1.00;;;;;;;23.83;38.44;101852.72;6188703;23;20354;-75
2023/07/06 15:02:16;;;;;;;2.35;1.20;;;;;;;23.90;41.03;101848.72;6188607;23;20033;-75
2023/07/06 15:04:46;;;;;;;2.42;1.50;;;;;;;23.85;37.98;101847.53;6188918;23;20018;-75
2023/07/06 15:07:14;;;;;;;2.47;1.92;;;;;;;23.65;38.65;101844.44;6188833;23;20081;-74
2023/07/06 15:09:41;;;;;;;2.55;1.90;;;;;;;23.52;39.84;101843.03;6187754;23;20014;-75
2023/07/06 15:12:07;;;;;;;1.65;1.52;;;;;;;23.60;40.52;101843.97;6188666;23;20022;-76
2023/07/06 15:14:34;;;;;;;2.25;1.50;;;;;;;23.77;39.21;101843.13;6188506;23;20014;-77
2023/07/06 15:17:02;;;;;;;1.38;1.20;;;;;;;23.69;37.72;101834.78;6188762;23;20017;-75
2023/07/06 15:19:28;;;;;;;1.30;1.20;;;;;;;23.58;38.14;101843.03;6188334;23;20456;-75
2023/07/06 15:21:56;;;;;;;1.75;1.50;;;;;;;23.50;38.62;101842.06;6161690;23;20029;-75
2023/07/06 15:24:23;;;;;;;1.80;1.35;;;;;;;23.46;38.64;101839.59;6161789;23;20447;-75
2023/07/06 15:26:49;;;;;;;1.45;1.20;;;;;;;23.49;40.24;101835.16;6156701;23;20117;-75
2023/07/06 15:29:16;;;;;;;1.45;1.30;;;;;;;23.49;39.60;101833.16;6158729;23;20097;-75
2023/07/06 15:31:45;;;;;;;1.58;1.42;;;;;;;23.50;39.81;101831.94;6158567;23;20049;-76
2023/07/06 15:34:12;;;;;;;3.85;1.60;;;;;;;23.50;39.53;101831.19;6158660;23;20014;-74
2023/07/06 15:36:39;;;;;;;1.55;1.30;;;;;;;23.65;41.02;101828.13;6158310;23;20017;-74
2023/07/06 15:39:06;;;;;;;1.40;1.30;;;;;;;23.65;39.68;101823.44;6158351;23;20041;-76
2023/07/06 15:41:33;;;;;;;3.35;1.50;;;;;;;23.52;41.30;101832.16;6158224;23;20490;-75
2023/07/06 15:44:01;;;;;;;1.55;1.45;;;;;;;23.53;41.40;101828.22;6158624;23;20046;-76
2023/07/06 15:46:30;;;;;;;2.28;1.30;;;;;;;23.43;38.84;101824.31;6156529;23;20022;-77
2023/07/06 15:48:58;;;;;;;2.65;1.70;;;;;;;23.32;38.72;101818.94;6158719;23;20018;-76
2023/07/06 15:51:25;;;;;;;2.60;1.50;;;;;;;23.21;41.53;101814.28;6156406;23;20033;-77
2023/07/06 15:53:52;;;;;;;1.70;1.60;;;;;;;23.35;43.09;101814.47;6156569;23;20018;-78
2023/07/06 15:56:18;;;;;;;1.50;1.40;;;;;;;23.22;40.82;101823.91;6158879;23;20018;-77
2023/07/06 15:59:00;;;;;;;1.40;1.20;;;;;;;23.14;40.38;101824.97;6158732;23;20064;-76
2023/07/06 16:01:27;;;;;;;4.95;1.52;;;;;;;23.04;42.89;101815.63;6157881;23;20543;-77
2023/07/06 16:03:54;;;;;;;3.38;1.60;;;;;;;23.10;41.46;101816.34;6158634;23;20345;-76
2023/07/06 16:06:22;;;;;;;2.65;1.40;;;;;;;23.06;41.63;101819.31;6158392;23;20014;-76
2023/07/06 16:08:49;;;;;;;1.75;1.52;;;;;;;23.17;42.59;101813.84;6156536;23;20049;-76
2023/07/06 16:11:22;;;;;;;2.15;1.50;;;;;;;23.12;41.73;101817.31;6158470;23;20029;-75
2023/07/06 16:13:49;;;;;;;2.67;1.70;;;;;;;23.10;42.50;101821.78;6158433;23;20014;-75
2023/07/06 16:16:31;;;;;;;2.00;1.58;;;;;;;23.26;42.06;101815.50;6156781;23;20034;-78
2023/07/06 16:18:58;;;;;;;1.65;1.55;;;;;;;23.23;41.43;101821.94;6158311;23;20423;-78
2023/07/06 16:21:25;;;;;;;4.72;1.90;;;;;;;23.18;40.24;101820.75;6157970;23;20025;-75
2023/07/06 16:23:52;;;;;;;3.17;1.85;;;;;;;23.14;40.47;101819.53;6157756;23;20609;-76
2023/07/06 16:26:21;;;;;;;1.15;1.13;;;;;;;23.22;42.09;101817.75;6180059;23;20024;-76
2023/07/06 16:28:49;;;;;;;4.07;1.95;;;;;;;23.25;41.85;101816.75;6161350;23;20563;-75
2023/07/06 16:31:17;;;;;;;5.05;1.50;;;;;;;23.19;41.82;101818.78;6188110;23;20309;-75
2023/07/06 16:33:44;;;;;;;4.70;1.70;;;;;;;23.03;42.00;101819.59;6187436;23;20097;-76
2023/07/06 16:36:12;;;;;;;2.60;1.48;;;;;;;23.02;42.59;101815.41;6188317;23;20017;-77
2023/07/06 16:38:39;;;;;;;4.07;1.52;;;;;;;23.12;42.62;101817.31;6187380;23;20013;-76
2023/07/06 16:41:09;;;;;;;3.88;1.33;;;;;;;23.28;43.62;101824.63;6188143;23;20021;-76
2023/07/06 16:43:36;;;;;;;3.25;1.55;;;;;;;23.37;42.61;101820.88;6187681;23;20052;-75
2023/07/06 16:46:04;;;;;;;3.08;1.52;;;;;;;23.31;42.46;101819.44;6188403;23;20109;-76
2023/07/06 16:48:32;;;;;;;1.88;1.60;;;;;;;23.12;42.08;101816.59;6187837;23;20505;-76
2023/07/06 16:51:01;;;;;;;3.67;1.50;;;;;;;23.15;43.85;101813.59;6187604;23;20037;-76
2023/07/06 16:53:28;;;;;;;1.92;1.80;;;;;;;23.12;42.76;101811.91;6187925;23;20064;-76
2023/07/06 16:55:56;;;;;;;2.95;1.50;;;;;;;23.10;42.17;101816.34;6188021;23;20024;-76
2023/07/06 16:58:23;;;;;;;2.20;1.60;;;;;;;22.95;42.23;101814.69;6187484;23;20397;-76
2023/07/06 17:00:50;;;;;;;2.35;1.50;;;;;;;22.92;42.30;101814.94;6187950;23;21880;-76
2023/07/06 17:03:17;;;;;;;3.42;1.73;;;;;;;23.00;42.25;101815.16;6188103;23;20073;-76
2023/07/06 17:05:47;;;;;;;3.20;1.73;;;;;;;22.92;41.21;101820.38;6187565;23;20102;-76
2023/07/06 17:08:14;;;;;;;2.70;1.52;;;;;;;22.83;42.31;101810.53;6188049;23;20013;-76
2023/07/06 17:10:41;;;;;;;2.10;1.65;;;;;;;22.80;42.30;101818.91;6187738;23;20498;-76
2023/07/06 17:13:08;;;;;;;2.03;1.73;;;;;;;22.80;42.57;101818.91;6187797;23;20456;-76
2023/07/06 17:15:34;;;;;;;3.05;1.55;;;;;;;22.82;42.48;101811.75;6187689;23;20013;-77
2023/07/06 17:18:01;;;;;;;2.25;1.60;;;;;;;22.90;43.44;101818.16;6187768;23;20022;-76
2023/07/06 17:20:28;;;;;;;2.42;1.67;;;;;;;23.10;43.80;101817.09;6186905;23;20088;-77
2023/07/06 17:22:55;;;;;;;1.55;1.40;;;;;;;23.14;43.15;101823.00;6161145;23;20021;-77
2023/07/06 17:25:21;;;;;;;3.05;1.48;;;;;;;23.18;42.87;101822.72;6157254;23;20495;-75
2023/07/06 17:27:48;;;;;;;1.73;1.23;;;;;;;23.27;44.25;101825.13;6159548;23;20014;-75
2023/07/06 17:30:15;;;;;;;4.72;1.63;;;;;;;23.00;42.38;101823.31;6160139;23;20025;-75
2023/07/06 17:32:42;;;;;;;1.92;1.67;;;;;;;22.87;42.54;101830.00;6158011;23;20419;-75
2023/07/06 17:35:09;;;;;;;3.20;1.88;;;;;;;22.89;42.63;101826.78;6159532;23;20097;-75
2023/07/06 17:37:35;;;;;;;1.60;1.50;;;;;;;22.91;44.00;101830.50;6159450;23;20420;-75
2023/07/06 17:40:03;;;;;;;3.53;1.80;;;;;;;22.97;43.46;101825.03;6160071;23;20022;-75
2023/07/06 17:42:30;;;;;;;4.18;1.88;;;;;;;22.97;43.58;101822.31;6159314;23;20097;-76
2023/07/06 17:44:57;;;;;;;2.80;1.50;;;;;;;22.83;43.31;101824.09;6158780;23;20384;-75
2023/07/06 17:47:23;;;;;;;4.68;1.40;;;;;;;22.86;43.64;101823.09;6160678;23;20388;-75
2023/07/06 17:49:50;;;;;;;2.92;1.90;;;;;;;22.85;44.10;101829.75;6160611;23;20028;-76
2023/07/06 17:52:17;;;;;;;3.45;2.08;;;;;;;22.82;43.84;101833.47;6160840;23;20474;-76
2023/07/06 17:54:44;;;;;;;2.88;1.60;;;;;;;22.85;45.03;101827.06;6161383;23;20018;-76
2023/07/06 17:57:11;;;;;;;3.25;1.80;;;;;;;22.72;43.93;101834.25;6160922;23;20478;-77
2023/07/06 17:59:38;;;;;;;2.53;1.80;;;;;;;22.58;44.48;101825.16;6159197;23;20384;-76
2023/07/06 18:02:05;;;;;;;2.80;1.95;;;;;;;22.46;45.45;101827.13;6160838;23;20024;-76
2023/07/06 18:04:32;;;;;;;2.00;1.70;;;;;;;22.35;44.37;101827.19;6159919;23;20014;-76
2023/07/06 18:06:59;;;;;;;2.58;1.65;;;;;;;22.34;45.17;101827.66;6161045;23;20014;-76
2023/07/06 18:09:28;;;;;;;2.00;1.80;;;;;;;22.35;45.44;101829.88;6160744;23;20135;-76
2023/07/06 18:11:54;;;;;;;3.50;1.77;;;;;;;22.24;45.64;101829.91;6160722;23;20089;-78
2023/07/06 18:14:21;;;;;;;1.83;1.73;;;;;;;22.13;45.98;101833.34;6160616;23;20069;-79
2023/07/06 18:16:48;;;;;;;3.88;1.98;;;;;;;21.96;46.37;101838.03;6161027;23;20065;-76
2023/07/06 18:19:14;;;;;;;3.33;1.88;;;;;;;21.84;46.15;101837.25;6160074;23;20056;-77
2023/07/06 18:21:41;;;;;;;3.03;1.75;;;;;;;21.72;47.40;101840.44;6160517;23;20018;-74
2023/07/06 18:24:08;;;;;;;3.97;1.70;;;;;;;21.64;47.21;101837.47;6159517;23;20050;-75
2023/07/06 18:26:34;;;;;;;3.47;1.60;;;;;;;21.53;46.75;101832.06;6185778;23;20023;-75
2023/07/06 18:29:01;;;;;;;4.47;1.65;;;;;;;21.45;48.70;101837.22;6190656;23;20039;-74
2023/07/06 18:31:28;;;;;;;3.40;2.00;;;;;;;21.41;47.88;101835.97;6190227;23;20452;-77
2023/07/06 18:33:55;;;;;;;2.83;2.20;;;;;;;21.31;48.91;101840.84;6190102;23;20013;-76
2023/07/06 18:36:23;;;;;;;4.68;1.65;;;;;;;21.26;50.38;101838.88;6190204;23;20018;-77
2023/07/06 18:38:49;;;;;;;2.63;1.65;;;;;;;21.18;50.71;101833.16;6190452;23;20048;-78
2023/07/06 18:41:16;;;;;;;1.83;1.73;;;;;;;21.09;52.06;101840.75;6139213;23;20021;-78
2023/07/06 18:43:43;;;;;;;2.88;1.83;;;;;;;21.02;51.24;101833.84;6190202;23;20016;-79
2023/07/06 18:46:09;;;;;;;2.20;2.00;;;;;;;20.97;52.45;101839.97;6190619;23;20048;-80
2023/07/06 18:48:36;;;;;;;1.63;1.50;;;;;;;20.88;52.53;101843.59;6189611;23;20052;-78
2023/07/06 18:51:04;;;;;;;2.53;1.83;;;;;;;20.79;53.34;101843.81;6163675;23;20053;-77
2023/07/06 18:53:31;;;;;;;1.92;1.80;;;;;;;20.70;52.63;101844.03;6190305;23;20399;-77
2023/07/06 18:56:12;;;;;;;3.85;2.00;;;;;;;20.67;53.70;101844.25;6189797;23;20499;-77
2023/07/06 18:58:39;;;;;;;2.20;1.70;;;;;;;20.59;54.05;101846.66;6190064;23;20069;-76
2023/07/06 19:01:06;;;;;;;3.60;1.80;;;;;;;20.55;55.27;101846.88;6190600;23;20024;-80
2023/07/06 19:03:33;;;;;;;2.15;1.92;;;;;;;20.46;55.13;101847.06;6138656;23;20026;-80
2023/07/06 19:06:00;;;;;;;2.92;2.22;;;;;;;20.43;55.91;101839.16;6190513;23;20543;-77
2023/07/06 19:08:33;;;;;;;3.13;2.05;;;;;;;20.33;55.95;101845.97;6190252;23;20084;-77
2023/07/06 19:11:04;;;;;;;6.15;1.98;;;;;;;20.30;57.85;101845.69;6190653;23;20025;-76
2023/07/06 19:13:31;;;;;;;2.10;2.00;;;;;;;20.25;58.34;101849.09;6189107;23;20044;-76
2023/07/06 19:15:58;;;;;;;2.38;2.17;;;;;;;20.20;58.99;101851.75;6189648;23;20034;-76
2023/07/06 19:18:25;;;;;;;2.70;2.15;;;;;;;20.13;58.96;101855.63;6190051;23;20029;-76
2023/07/06 19:20:52;;;;;;;2.35;2.15;;;;;;;20.08;60.22;101861.00;6190722;23;20091;-76
2023/07/06 19:23:19;;;;;;;2.30;2.00;;;;;;;20.04;60.47;101871.25;6189608;23;20105;-76
2023/07/06 19:25:45;;;;;;;2.22;1.98;;;;;;;19.92;61.06;101854.97;6190135;23;20439;-76
2023/07/06 19:28:12;;;;;;;2.38;1.95;;;;;;;19.87;62.48;101865.72;6190470;23;20022;-76
2023/07/06 19:30:38;;;;;;;4.25;2.20;;;;;;;19.73;62.73;101864.59;6189507;23;20013;-76
2023/07/06 19:33:05;;;;;;;2.88;2.08;;;;;;;19.70;63.66;101865.56;6190452;23;20045;-76
2023/07/06 19:35:36;;;;;;;3.80;2.03;;;;;;;19.64;64.08;101872.84;6190063;23;20010;-76
2023/07/06 19:38:04;;;;;;;3.57;2.03;;;;;;;19.55;64.44;101878.41;6163741;23;20109;-76
2023/07/06 19:40:32;;;;;;;2.40;2.20;;;;;;;19.48;64.55;101874.13;6190118;23;20447;-75
2023/07/06 19:42:58;;;;;;;4.90;2.80;;;;;;;19.42;65.16;101878.72;6190188;23;20022;-75
2023/07/06 19:45:25;;;;;;;4.53;2.05;;;;;;;19.34;66.20;101883.06;6189459;23;20084;-76
2023/07/06 19:47:55;;;;;;;3.05;2.47;;;;;;;19.25;67.14;101880.47;6190375;23;20021;-76
2023/07/06 19:50:23;;;;;;;5.00;2.33;;;;;;;19.17;66.92;101887.53;6163656;23;20021;-76
2023/07/06 19:52:49;;;;;;;3.75;2.90;;;;;;;19.10;67.07;101890.59;6161705;23;20017;-76
2023/07/06 19:55:16;;;;;;;9.35;2.30;;;;;;;18.97;68.16;101886.28;6188799;23;20040;-73
2023/07/06 19:57:43;;;;;;;6.15;3.00;;;;;;;18.89;68.03;101893.25;6188146;23;20076;-76
2023/07/06 20:00:13;;;;;;;5.35;3.50;;;;;;;18.79;68.23;101893.88;6187927;23;20462;-73
2023/07/06 20:02:41;;;;;;;8.32;5.63;;;;;;;18.67;67.93;101894.91;6188064;23;20116;-75
2023/07/06 20:05:08;;;;;;;6.68;5.07;;;;;;;18.55;68.59;101904.75;6188700;23;20024;-75
2023/07/06 20:07:35;;;;;;;9.85;5.50;;;;;;;18.48;69.62;101902.41;6187959;23;20021;-76
2023/07/06 20:10:04;;;;;;;4.97;4.57;;;;;;;18.40;70.35;101907.44;6188807;23;20522;-75
2023/07/06 20:12:31;;;;;;;4.90;4.10;;;;;;;18.32;70.57;101909.78;6188030;23;20014;-76
2023/07/06 20:14:58;;;;;;;4.35;4.05;;;;;;;18.25;70.99;101907.47;6161640;23;20014;-74
2023/07/06 20:17:25;;;;;;;5.45;3.85;;;;;;;18.20;70.80;101915.44;6187780;23;20479;-75
2023/07/06 20:19:53;;;;;;;5.80;3.70;;;;;;;18.14;71.19;101909.22;6188230;23;20017;-76
2023/07/06 20:22:20;;;;;;;6.07;3.55;;;;;;;18.05;72.75;101914.69;6187932;23;20045;-75
2023/07/06 20:24:48;;;;;;;3.22;2.90;;;;;;;17.95;73.05;101914.78;6187960;23;20018;-75
2023/07/06 20:27:15;;;;;;;4.63;3.25;;;;;;;17.88;74.05;101925.16;6162109;23;20021;-77
2023/07/06 20:29:41;;;;;;;4.10;2.90;;;;;;;17.83;74.02;101921.16;6161794;23;20013;-76
2023/07/06 20:32:11;;;;;;;3.30;3.08;;;;;;;17.78;75.21;101923.75;6163982;23;20014;-77
2023/07/06 20:34:39;;;;;;;5.88;3.35;;;;;;;17.67;74.99;101919.63;6189508;23;20037;-76
2023/07/06 20:37:07;;;;;;;2.67;2.58;;;;;;;17.59;74.76;101917.75;6138922;23;20425;-76
2023/07/06 20:39:37;;;;;;;2.92;2.63;;;;;;;17.52;74.79;101923.47;6189865;23;20014;-76
2023/07/06 20:42:04;;;;;;;2.92;2.72;;;;;;;17.39;75.27;101931.00;6190351;23;20022;-77
2023/07/06 20:44:31;;;;;;;3.20;2.90;;;;;;;17.25;75.15;101929.75;6189107;23;20030;-76
2023/07/06 20:46:58;;;;;;;4.97;3.08;;;;;;;17.12;75.37;101935.34;6189437;23;20018;-77
2023/07/06 20:49:24;;;;;;;3.95;2.53;;;;;;;17.07;75.72;101932.53;6189377;23;20014;-77
2023/07/06 20:51:51;;;;;;;4.25;3.17;;;;;;;16.99;75.30;101942.88;6189227;23;20470;-79
2023/07/06 20:54:18;;;;;;;4.32;2.97;;;;;;;16.88;74.68;101940.66;6189825;23;20440;-75
2023/07/06 20:56:45;;;;;;;3.33;3.03;;;;;;;16.87;74.47;101941.88;6190329;23;20100;-80
2023/07/06 20:59:11;;;;;;;3.50;2.78;;;;;;;16.77;74.59;101940.44;6189683;23;20403;-75
2023/07/06 21:01:38;;;;;;;5.15;3.20;;;;;;;16.69;75.64;101949.25;6189733;23;20858;-76
2023/07/06 21:04:05;;;;;;;3.60;3.30;;;;;;;16.62;75.63;101945.66;6190059;23;20013;-75